createdAt,value
2023-03-23T15:59:58.806Z,1.30
2023-03-23T16:02:26.909Z,1.38
2023-03-23T16:04:54.987Z,1.58
2023-03-23T16:07:25.355Z,1.10
2023-03-23T16:09:53.268Z,1.23
2023-03-23T16:12:21.204Z,1.27
2023-03-23T16:14:50.533Z,1.35
2023-03-23T16:17:21.817Z,1.20
2023-03-23T16:19:50.025Z,1.20
2023-03-23T16:22:18.763Z,1.33
2023-03-23T16:24:47.173Z,1.10
2023-03-23T16:27:16.054Z,1.27
2023-03-23T16:30:02.113Z,1.52
2023-03-23T16:34:59.478Z,1.70
2023-03-23T16:37:27.480Z,1.33
2023-03-23T16:39:55.355Z,1.20
2023-03-23T16:42:23.357Z,1.45
2023-03-23T16:44:51.957Z,1.20
2023-03-23T16:47:23.304Z,1.35
2023-03-23T16:49:52.746Z,1.30
2023-03-23T16:52:21.001Z,1.30
2023-03-23T16:54:48.903Z,1.42
2023-03-23T16:57:18.419Z,1.67
2023-03-23T16:59:46.565Z,1.27
2023-03-23T17:02:14.505Z,1.20
2023-03-23T17:04:45.088Z,1.88
2023-03-23T17:07:15.386Z,1.75
2023-03-23T17:09:44.180Z,1.88
2023-03-23T17:12:12.224Z,1.50
2023-03-23T17:14:40.182Z,1.60
2023-03-23T17:17:10.125Z,1.73
2023-03-23T17:19:38.322Z,1.55
2023-03-23T17:22:06.546Z,1.38
2023-03-23T17:24:35.867Z,1.33
2023-03-23T17:27:03.791Z,1.70
2023-03-23T17:29:31.659Z,1.77
2023-03-23T17:31:59.591Z,1.65
2023-03-23T17:34:27.417Z,2.05
2023-03-23T17:36:55.386Z,1.23
2023-03-23T17:39:23.286Z,1.75
2023-03-23T17:41:52.513Z,1.27
2023-03-23T17:44:20.555Z,1.67
2023-03-23T17:46:48.512Z,1.80
2023-03-23T17:49:16.427Z,1.67
2023-03-23T17:51:44.622Z,1.63
2023-03-23T17:54:12.775Z,1.40
2023-03-23T17:56:40.781Z,1.70
2023-03-23T17:59:10.186Z,1.67
2023-03-23T18:01:38.129Z,1.55
2023-03-23T18:04:06.212Z,1.55
2023-03-23T18:06:34.070Z,1.95
2023-03-23T18:09:03.526Z,1.48
2023-03-23T18:11:31.500Z,2.05
2023-03-23T18:13:59.750Z,1.38
2023-03-23T18:16:29.116Z,1.92
2023-03-23T18:18:57.311Z,2.15
2023-03-23T18:21:26.087Z,2.40
2023-03-23T18:23:59.222Z,2.55
2023-03-23T18:26:29.396Z,2.42
2023-03-23T18:28:57.464Z,2.05
2023-03-23T18:31:25.892Z,2.03
2023-03-23T18:33:55.445Z,2.13
2023-03-23T18:36:25.844Z,1.92
2023-03-23T18:38:56.617Z,1.80
2023-03-23T18:41:24.883Z,1.77
2023-03-23T18:43:53.036Z,2.00
2023-03-23T18:46:21.098Z,1.92
2023-03-23T18:48:48.999Z,2.50
2023-03-23T18:51:18.250Z,2.10
2023-03-23T18:53:46.258Z,2.45
2023-03-23T18:56:16.012Z,2.00
2023-03-23T18:58:44.687Z,2.42
2023-03-23T19:01:15.031Z,2.13
2023-03-23T19:03:43.565Z,1.75
2023-03-23T19:06:16.647Z,2.20
2023-03-23T19:08:46.209Z,2.25
2023-03-23T19:11:14.394Z,2.05
2023-03-23T19:13:53.948Z,2.03
2023-03-23T19:16:26.698Z,2.28
2023-03-23T19:18:54.622Z,2.38
2023-03-23T19:21:25.583Z,2.90
2023-03-23T19:23:56.198Z,2.88
2023-03-23T19:26:25.907Z,2.50
2023-03-23T19:29:24.466Z,2.65
2023-03-23T19:31:43.999Z,2.28
2023-03-23T19:34:13.377Z,2.30
2023-03-23T19:36:41.317Z,1.95
2023-03-23T19:39:10.624Z,2.08
2023-03-23T19:41:38.586Z,2.05
2023-03-23T19:44:08.336Z,1.80
2023-03-23T19:46:36.393Z,1.63
2023-03-23T19:49:04.917Z,2.22
2023-03-23T19:51:32.743Z,2.28
2023-03-23T19:54:00.985Z,2.25
2023-03-23T19:56:31.048Z,2.17
2023-03-23T19:59:00.169Z,2.40
2023-03-23T20:01:29.242Z,2.20
2023-03-23T20:03:59.755Z,3.08
2023-03-23T20:06:29.617Z,2.80
2023-03-23T20:09:00.174Z,3.00
2023-03-23T20:11:31.327Z,2.63
2023-03-23T20:13:59.303Z,2.05
2023-03-23T20:16:27.377Z,2.85
2023-03-23T20:18:59.612Z,2.50
2023-03-23T20:21:28.709Z,2.40
2023-03-23T20:23:58.866Z,2.58
2023-03-23T20:26:29.329Z,2.45
2023-03-23T20:28:58.735Z,2.42
2023-03-23T20:31:28.358Z,2.40
2023-03-23T20:34:01.918Z,2.47
2023-03-23T20:36:34.769Z,2.65
2023-03-23T20:39:05.102Z,2.88
2023-03-23T20:41:35.998Z,2.30
2023-03-23T20:44:07.516Z,2.60
2023-03-23T20:46:36.493Z,2.88
2023-03-23T20:49:06.001Z,2.67
2023-03-23T20:51:34.171Z,3.35
2023-03-23T20:54:03.594Z,2.95
2023-03-23T20:56:31.574Z,3.15
2023-03-23T20:58:59.549Z,2.85
2023-03-23T21:01:29.007Z,2.85
2023-03-23T21:03:57.813Z,2.75
2023-03-23T21:06:28.490Z,2.70
2023-03-23T21:08:57.992Z,3.03
2023-03-23T21:11:27.552Z,2.92
2023-03-23T21:13:55.737Z,2.80
2023-03-23T21:16:24.736Z,3.33
2023-03-23T21:18:54.618Z,3.28
2023-03-23T21:21:22.738Z,2.67
2023-03-23T21:23:52.762Z,3.13
2023-03-23T21:26:23.226Z,2.78
2023-03-23T21:28:53.988Z,2.85
2023-03-23T21:31:26.778Z,3.17
2023-03-23T21:33:56.088Z,3.77
2023-03-23T21:36:24.721Z,3.70
2023-03-23T21:38:52.916Z,3.53
2023-03-23T21:41:21.206Z,3.03
2023-03-23T21:43:50.122Z,3.50
2023-03-23T21:46:19.205Z,3.17
2023-03-23T21:48:51.392Z,2.75
2023-03-23T21:51:23.724Z,3.13
2023-03-23T21:53:54.067Z,3.10
2023-03-23T21:56:23.802Z,3.03
2023-03-23T21:58:52.061Z,3.03
2023-03-23T22:01:20.641Z,3.20
2023-03-23T22:03:49.180Z,2.90
2023-03-23T22:06:23.337Z,3.60
2023-03-23T22:08:53.011Z,3.80
2023-03-23T22:11:23.767Z,3.50
2023-03-23T22:13:51.965Z,3.30
2023-03-23T22:16:21.174Z,3.33
2023-03-23T22:18:51.232Z,3.47
2023-03-23T22:21:23.102Z,3.25
2023-03-23T22:23:53.338Z,3.92
2023-03-23T22:26:21.914Z,3.53
2023-03-23T22:28:52.051Z,3.33
2023-03-23T22:31:22.072Z,3.60
2023-03-23T22:33:54.081Z,3.63
2023-03-23T22:36:23.425Z,3.90
2023-03-23T22:38:54.993Z,3.35
2023-03-23T22:41:25.081Z,3.90
2023-03-23T22:43:53.600Z,3.40
2023-03-23T22:46:22.133Z,3.75
2023-03-23T22:48:50.358Z,3.60
2023-03-23T22:51:19.986Z,3.28
2023-03-23T22:53:48.559Z,3.70
2023-03-23T22:56:19.053Z,3.78
2023-03-23T22:58:47.113Z,3.50
2023-03-23T23:01:18.377Z,3.35
2023-03-23T23:03:47.445Z,3.58
2023-03-23T23:06:17.660Z,3.58
2023-03-23T23:08:46.850Z,3.40
2023-03-23T23:11:18.429Z,3.88
2023-03-23T23:13:47.347Z,3.75
2023-03-23T23:16:17.919Z,3.00
2023-03-23T23:18:47.535Z,3.30
2023-03-23T23:21:18.205Z,2.97
2023-03-23T23:23:46.651Z,3.28
2023-03-23T23:26:17.771Z,2.42
2023-03-23T23:28:47.485Z,2.92
2023-03-23T23:31:26.185Z,2.60
2023-03-23T23:33:56.200Z,2.30
2023-03-23T23:36:27.991Z,2.67
2023-03-23T23:38:56.503Z,2.22
2023-03-23T23:41:26.065Z,2.60
2023-03-23T23:43:54.202Z,2.30
2023-03-23T23:46:22.370Z,2.80
2023-03-23T23:48:50.432Z,2.42
2023-03-23T23:51:18.711Z,2.53
2023-03-23T23:53:53.537Z,2.20
2023-03-23T23:56:22.910Z,2.50
2023-03-23T23:58:52.626Z,2.50
